METAR Data
IDs: Format: Raw Decoded Include TAF

Data at: 0113 UTC 12 May 2021

METAR for:TNCM (St Maarten Intl, --, MN)
Text:TNCM 120100Z 07008KT 040V120 9999 BKN017 27/22 Q1019 NOSIG
Temperature: 27.0°C ( 81°F)
Dewpoint: 22.0°C ( 72°F) [RH = 74%]
Pressure (altimeter):30.09 inches Hg (1019.0 mb)
Winds:from the ENE (70 degrees) at 9 MPH (8 knots; 4.1 m/s)
Visibility:6 or more sm (10+ km)
Ceiling:1700 feet AGL
Clouds: broken clouds at 1700 feet AGL